Decoded Metar for KMSS (MASSENA in NY, USA) (IATA:MSS) | Meteo·Mobile Aviation Weather
aviador You're here:

KMSS Decoded Metar

MASSENA in NY, USA
Report Time2018-12-17 14:53:00
UTC Time2018-12-17 15:09:35
Flight Rules mvfr MVFR
Wind260° at 07 kt
W.Decomp.*RWY 27: 7.0 kt HW 0.5 kt RCW
RWY 23: 5.0 kt HW 4.9 kt RCW
W.Rank260° ranks 7
Current wind is below 260° avg. (8.8)
Visibility9999 m
Phenomena:N/A
Clouds:Overcast 027 Hf
Expected CloudBase > 800 ft AGL from Temp-Dew spread
Ceiling2,700 ft
Temp01°C (ISA -14)
Dew Point-1°C (87% RH)
AAT-3.6°C
QNH1006 hPa
Density Alt-1,119 ft
Elevation217 ft
Report Wrong Elevation
Raw Report
KMSS 171453Z AUTO 26007KT 10SM OVC027 01/M01 A2970 RMK AO2
UPE1358SNB1358E10 SLP063 P0000 60000 T00111006 55000=

Extra information for KMSS:More info

Metar Taf Metar & Taf Last 4 Metars F.Rules Stats Wind Profile Meteogram Temp Stats Airport Information Weather charts Add Link Nearby VenuesMetar ALERT Operation Metar Decoded Social comments

AIRNAV info for KMSS